Time;durP1;ratioP1;P1;durP2;ratioP2;P2;SDS_P1;SDS_P2;PMS_P1;PMS_P2;Temp;Humidity;BMP_temperature;BMP_pressure;BME280_temperature;BME280_humidity;BME280_pressure;Samples;Min_cycle;Max_cycle;Signal;HPM_P1;HPM_P2
2021/06/24 00:00:47;;;;;;;8.07;2.90;;;;;;;10.78;79.02;101237.66;5001634;28;20082;-76
2021/06/24 00:03:13;;;;;;;5.95;2.55;;;;;;;10.76;78.98;101237.09;5010287;28;20142;-76
2021/06/24 00:05:39;;;;;;;7.28;2.80;;;;;;;10.76;79.08;101234.31;4986693;28;20025;-76
2021/06/24 00:08:06;;;;;;;5.82;2.60;;;;;;;10.70;78.85;101235.44;5001070;28;20034;-76
2021/06/24 00:10:32;;;;;;;4.43;2.25;;;;;;;10.69;78.77;101229.03;4966702;28;20662;-76
2021/06/24 00:12:57;;;;;;;6.82;2.42;;;;;;;10.63;78.91;101234.88;5007214;28;20030;-76
2021/06/24 00:15:23;;;;;;;6.50;2.70;;;;;;;10.60;79.15;101230.69;4984220;28;20048;-77
2021/06/24 00:17:48;;;;;;;4.40;2.60;;;;;;;10.57;79.14;101231.25;5019333;28;20518;-77
2021/06/24 00:20:14;;;;;;;6.38;2.53;;;;;;;10.55;79.04;101229.88;5007798;28;20025;-77
2021/06/24 00:22:40;;;;;;;7.22;2.80;;;;;;;10.55;79.11;101232.63;5012406;28;20026;-77
2021/06/24 00:25:06;;;;;;;5.30;2.25;;;;;;;10.51;78.79;101227.63;5022949;28;20037;-77
2021/06/24 00:27:32;;;;;;;8.65;2.60;;;;;;;10.49;78.99;101226.25;5001630;28;20119;-77
2021/06/24 00:29:57;;;;;;;3.97;2.50;;;;;;;10.44;79.10;101223.47;5016406;28;20026;-77
2021/06/24 00:32:23;;;;;;;3.50;2.25;;;;;;;10.44;78.91;101221.50;5023549;28;20033;-76
2021/06/24 00:34:48;;;;;;;7.20;2.17;;;;;;;10.42;79.03;101225.66;5018532;28;20426;-77
2021/06/24 00:37:14;;;;;;;5.05;2.55;;;;;;;10.42;79.07;101232.09;5010396;28;20031;-77
2021/06/24 00:39:39;;;;;;;3.85;2.30;;;;;;;10.38;79.31;101230.94;5000289;28;20034;-76
2021/06/24 00:42:05;;;;;;;5.90;2.50;;;;;;;10.36;79.13;101235.09;5004059;28;20041;-77
2021/06/24 00:44:30;;;;;;;5.80;2.70;;;;;;;10.37;79.15;101232.06;5019153;28;20044;-77
2021/06/24 00:46:56;;;;;;;4.85;2.63;;;;;;;10.37;79.08;101240.41;4991128;28;20030;-77
2021/06/24 00:49:22;;;;;;;4.32;2.60;;;;;;;10.29;79.18;101235.38;5014330;28;20045;-76
2021/06/24 00:51:48;;;;;;;5.05;2.50;;;;;;;10.27;79.19;101235.66;5024176;28;20036;-77
2021/06/24 00:54:14;;;;;;;6.60;2.63;;;;;;;10.24;79.59;101241.72;5017162;28;20164;-76
2021/06/24 00:56:39;;;;;;;6.05;2.75;;;;;;;10.25;79.44;101239.78;5006594;28;20058;-76
2021/06/24 00:59:05;;;;;;;6.20;2.90;;;;;;;10.26;79.27;101238.69;5004156;28;20033;-76
2021/06/24 01:01:31;;;;;;;6.38;2.45;;;;;;;10.24;79.24;101236.16;5010432;28;20038;-76
2021/06/24 01:03:57;;;;;;;4.80;2.65;;;;;;;10.19;79.42;101229.78;5004139;28;20029;-76
2021/06/24 01:06:22;;;;;;;4.50;2.65;;;;;;;10.16;79.39;101227.53;5006231;28;20446;-76
2021/06/24 01:08:48;;;;;;;4.47;2.65;;;;;;;10.15;79.73;101228.66;4995190;28;20089;-76
2021/06/24 01:11:14;;;;;;;8.55;3.00;;;;;;;10.10;79.95;101223.09;5005647;28;20034;-76
2021/06/24 01:13:39;;;;;;;4.78;2.85;;;;;;;10.14;79.88;101216.72;5018886;28;20087;-77
2021/06/24 01:16:05;;;;;;;6.75;3.00;;;;;;;10.10;79.71;101223.94;5007946;28;20031;-76
2021/06/24 01:18:30;;;;;;;5.57;2.80;;;;;;;10.08;80.08;101215.03;5001485;28;20035;-76
2021/06/24 01:20:56;;;;;;;7.15;2.65;;;;;;;10.10;79.92;101214.78;5004153;28;20025;-77
2021/06/24 01:23:21;;;;;;;7.45;2.88;;;;;;;10.01;79.82;101206.97;5025207;28;20045;-76
2021/06/24 01:25:47;;;;;;;4.88;2.42;;;;;;;10.01;79.70;101212.53;5009385;28;20033;-77
2021/06/24 01:28:12;;;;;;;5.22;2.53;;;;;;;10.03;79.69;101209.50;5026630;28;20037;-76
2021/06/24 01:30:39;;;;;;;8.65;3.22;;;;;;;10.02;79.71;101205.03;5023337;28;20068;-76
2021/06/24 01:33:05;;;;;;;5.03;2.45;;;;;;;9.95;79.76;101212.78;5014036;28;20060;-76
2021/06/24 01:35:31;;;;;;;6.55;2.70;;;;;;;9.98;79.94;101213.06;5022560;28;20038;-76
2021/06/24 01:38:01;;;;;;;4.25;2.75;;;;;;;9.94;79.99;101205.56;5005915;28;20092;-77
2021/06/24 01:40:26;;;;;;;5.63;2.75;;;;;;;9.90;80.36;101210.81;5000602;28;20029;-77
2021/06/24 01:42:52;;;;;;;6.10;3.35;;;;;;;9.91;80.24;101212.47;5022875;28;20045;-76
2021/06/24 01:45:18;;;;;;;5.50;2.45;;;;;;;9.88;80.36;101215.81;5021362;28;20026;-77
2021/06/24 01:47:44;;;;;;;5.97;2.70;;;;;;;9.85;80.20;101213.56;5000383;28;20454;-77
2021/06/24 01:50:10;;;;;;;5.72;2.47;;;;;;;9.84;80.25;101206.38;4987711;28;20038;-76
2021/06/24 01:52:36;;;;;;;7.05;2.90;;;;;;;9.86;79.94;101215.25;5017305;28;20029;-76
2021/06/24 01:55:02;;;;;;;5.00;2.60;;;;;;;9.83;80.24;101215.78;5014424;28;20041;-76
2021/06/24 01:57:28;;;;;;;4.28;2.65;;;;;;;9.79;80.29;101207.19;5024487;28;20536;-76
2021/06/24 01:59:53;;;;;;;8.13;2.35;;;;;;;9.80;80.03;101202.47;5021143;28;20022;-77
2021/06/24 02:02:19;;;;;;;5.50;2.75;;;;;;;9.75;80.30;101202.44;5012054;28;20390;-76
2021/06/24 02:04:44;;;;;;;7.18;2.50;;;;;;;9.79;79.79;101200.81;5022542;28;20026;-76
2021/06/24 02:07:10;;;;;;;6.57;2.63;;;;;;;9.72;80.41;101195.53;5010363;28;20029;-76
2021/06/24 02:09:36;;;;;;;6.50;2.80;;;;;;;9.73;80.33;101199.94;5019049;28;20038;-76
2021/06/24 02:12:02;;;;;;;5.63;2.40;;;;;;;9.65;80.57;101196.88;4999758;28;20030;-76
2021/06/24 02:14:27;;;;;;;8.73;2.97;;;;;;;9.66;80.61;101206.84;5023068;28;20459;-76
2021/06/24 02:16:53;;;;;;;6.35;2.72;;;;;;;9.63;80.36;101203.50;5022185;28;20391;-76
2021/06/24 02:19:19;;;;;;;8.32;3.28;;;;;;;9.65;80.35;101196.88;5019510;28;20042;-77
2021/06/24 02:21:44;;;;;;;6.30;2.45;;;;;;;9.65;80.56;101202.41;5013881;28;20030;-76
2021/06/24 02:24:09;;;;;;;4.55;2.80;;;;;;;9.61;80.61;101196.56;5007031;28;20033;-77
2021/06/24 02:26:35;;;;;;;4.45;2.85;;;;;;;9.56;80.59;101189.06;5001258;28;20026;-76
2021/06/24 02:29:01;;;;;;;9.27;2.85;;;;;;;9.57;80.67;101187.94;5022867;28;20101;-76
2021/06/24 02:31:27;;;;;;;5.13;2.58;;;;;;;9.54;80.89;101191.28;5005927;28;20025;-76
2021/06/24 02:33:53;;;;;;;4.32;2.78;;;;;;;9.53;80.84;101183.25;5024090;28;20399;-76
2021/06/24 02:36:19;;;;;;;7.93;3.00;;;;;;;9.53;80.88;101186.84;5019871;28;20042;-76
2021/06/24 02:38:44;;;;;;;6.97;2.50;;;;;;;9.51;81.35;101191.81;4986272;28;20026;-76
2021/06/24 02:41:10;;;;;;;6.63;3.55;;;;;;;9.53;81.15;101174.91;5015834;28;20031;-76
2021/06/24 02:43:35;;;;;;;7.82;3.72;;;;;;;9.51;81.17;101175.19;5000436;28;20021;-76
2021/06/24 02:46:01;;;;;;;7.55;3.38;;;;;;;9.53;81.30;101172.97;5018215;28;20085;-76
2021/06/24 02:48:27;;;;;;;8.77;3.63;;;;;;;9.53;81.53;101174.91;5001938;28;20395;-76
2021/06/24 02:50:52;;;;;;;6.05;3.10;;;;;;;9.51;81.63;101177.94;5010658;28;20037;-76
2021/06/24 02:53:18;;;;;;;7.25;3.33;;;;;;;9.50;81.55;101173.53;5009379;28;20030;-76
2021/06/24 02:55:43;;;;;;;7.45;3.50;;;;;;;9.50;81.78;101172.66;5024015;28;20391;-76
2021/06/24 02:58:10;;;;;;;8.85;3.40;;;;;;;9.52;81.62;101171.28;5001291;28;20040;-76
2021/06/24 03:00:36;;;;;;;7.80;3.50;;;;;;;9.50;81.52;101179.06;5018750;28;20052;-76
2021/06/24 03:03:01;;;;;;;3.60;2.75;;;;;;;9.49;81.51;101187.63;5002362;28;20041;-76
2021/06/24 03:05:27;;;;;;;4.45;2.78;;;;;;;9.50;81.31;101190.16;4995837;28;20034;-76
2021/06/24 03:07:52;;;;;;;3.75;2.65;;;;;;;9.47;81.36;101184.28;5015778;28;20034;-76
2021/06/24 03:10:18;;;;;;;7.15;3.08;;;;;;;9.48;80.93;101178.50;4987467;28;20033;-76
2021/06/24 03:12:44;;;;;;;6.65;2.92;;;;;;;9.45;81.17;101189.31;5016276;28;20026;-76
2021/06/24 03:15:10;;;;;;;5.30;2.50;;;;;;;9.43;81.22;101195.09;5014834;28;20108;-77
2021/06/24 03:17:36;;;;;;;3.85;2.55;;;;;;;9.47;80.93;101187.06;4999888;28;20029;-77
2021/06/24 03:20:07;;;;;;;3.10;2.30;;;;;;;9.42;81.23;101181.50;5008505;28;20030;-77
2021/06/24 03:22:34;;;;;;;4.18;2.20;;;;;;;9.39;81.00;101185.66;5020145;28;20084;-76
2021/06/24 03:25:00;;;;;;;4.57;2.70;;;;;;;9.36;81.06;101184.25;5018081;28;20093;-76
2021/06/24 03:27:26;;;;;;;4.85;2.53;;;;;;;9.35;80.94;101178.97;5002004;28;20052;-76
2021/06/24 03:29:51;;;;;;;6.07;2.63;;;;;;;9.36;80.90;101181.50;5009696;28;20033;-77
2021/06/24 03:32:17;;;;;;;4.32;2.30;;;;;;;9.33;81.17;101181.19;4999855;28;20505;-76
2021/06/24 03:34:42;;;;;;;6.35;2.97;;;;;;;9.31;81.16;101186.19;5003398;28;20399;-76
2021/06/24 03:37:08;;;;;;;7.28;2.97;;;;;;;9.31;81.35;101188.94;4998970;28;20034;-76
2021/06/24 03:39:33;;;;;;;8.50;3.15;;;;;;;9.25;81.22;101190.88;5018946;28;20042;-77
2021/06/24 03:41:59;;;;;;;5.95;2.90;;;;;;;9.25;81.08;101196.41;5003364;28;20021;-76
2021/06/24 03:44:24;;;;;;;3.75;2.53;;;;;;;9.25;81.06;101193.63;4997623;28;20038;-76
2021/06/24 03:46:50;;;;;;;6.10;2.75;;;;;;;9.24;80.96;101196.66;5025152;28;20022;-76
2021/06/24 03:49:15;;;;;;;7.15;3.17;;;;;;;9.22;80.84;101193.31;5003476;28;20034;-76
2021/06/24 03:51:41;;;;;;;5.63;2.75;;;;;;;9.23;80.98;101197.78;5008370;28;20091;-76
2021/06/24 03:54:06;;;;;;;4.68;2.45;;;;;;;9.19;81.16;101194.69;5025125;28;20105;-76
2021/06/24 03:56:32;;;;;;;5.45;2.67;;;;;;;9.20;81.00;101201.91;4998563;28;20050;-76
2021/06/24 03:58:58;;;;;;;4.40;2.72;;;;;;;9.13;81.39;101207.66;5020256;28;20387;-76
2021/06/24 04:01:23;;;;;;;6.20;2.75;;;;;;;9.12;81.29;101200.47;5009581;28;20029;-76
2021/06/24 04:03:49;;;;;;;3.85;2.50;;;;;;;9.11;81.22;101200.72;5020737;28;20038;-76
2021/06/24 04:06:14;;;;;;;7.63;2.53;;;;;;;9.08;81.15;101193.81;4988874;28;20470;-76
2021/06/24 04:08:40;;;;;;;7.03;2.55;;;;;;;9.08;80.99;101193.81;5017087;28;20029;-76
2021/06/24 04:11:05;;;;;;;5.03;2.63;;;;;;;9.06;80.84;101197.94;5005931;28;20041;-76
2021/06/24 04:13:31;;;;;;;4.63;2.58;;;;;;;9.07;80.93;101202.38;5014083;28;20030;-76
2021/06/24 04:15:56;;;;;;;5.82;2.80;;;;;;;9.04;81.21;101202.91;5012831;28;20372;-76
2021/06/24 04:18:22;;;;;;;6.80;2.88;;;;;;;9.01;81.52;101207.06;5024238;28;20383;-76
2021/06/24 04:20:48;;;;;;;4.22;2.67;;;;;;;9.02;81.31;101194.03;5010396;28;20096;-76
2021/06/24 04:23:13;;;;;;;4.85;2.53;;;;;;;9.01;81.24;101209.00;4991148;28;20092;-76
2021/06/24 04:25:39;;;;;;;5.97;2.40;;;;;;;8.99;81.38;101206.47;5021179;28;20033;-76
2021/06/24 04:28:04;;;;;;;3.80;2.38;;;;;;;9.03;81.32;101206.78;4999818;28;20060;-76
2021/06/24 04:30:30;;;;;;;7.97;2.40;;;;;;;9.02;81.57;101205.94;5015141;28;20039;-76
2021/06/24 04:32:56;;;;;;;3.90;2.40;;;;;;;9.04;81.66;101200.97;5021793;28;20037;-76
2021/06/24 04:35:21;;;;;;;6.78;2.75;;;;;;;9.06;82.18;101201.56;4998527;28;20038;-76
2021/06/24 04:37:47;;;;;;;3.58;2.38;;;;;;;9.11;82.18;101220.97;5021018;28;20030;-76
2021/06/24 04:40:13;;;;;;;7.00;2.65;;;;;;;9.14;83.03;101209.38;4968611;28;20500;-76
2021/06/24 04:42:39;;;;;;;5.25;2.55;;;;;;;9.20;82.82;101212.16;5020915;28;20041;-76
2021/06/24 04:45:06;;;;;;;5.20;2.75;;;;;;;9.27;83.13;101218.28;5004318;28;20045;-76
2021/06/24 04:47:31;;;;;;;6.35;2.75;;;;;;;9.35;83.84;101217.78;5001438;28;20030;-76
2021/06/24 04:49:57;;;;;;;4.72;2.80;;;;;;;9.43;83.57;101206.19;5001612;28;20037;-76
2021/06/24 04:52:22;;;;;;;6.82;2.92;;;;;;;9.53;85.88;101214.56;5008284;28;20025;-76
2021/06/24 04:54:48;;;;;;;7.35;2.95;;;;;;;9.62;84.18;101212.94;4998900;28;20490;-76
2021/06/24 04:57:13;;;;;;;4.72;2.40;;;;;;;9.76;83.49;101209.66;5015994;28;20573;-76
2021/06/24 04:59:39;;;;;;;5.45;2.33;;;;;;;9.86;82.43;101209.69;5000103;28;20367;-76
2021/06/24 05:02:04;;;;;;;4.50;2.20;;;;;;;10.01;81.64;101212.53;5015886;28;20034;-76
2021/06/24 05:04:30;;;;;;;4.68;2.00;;;;;;;10.17;81.35;101212.53;5016749;28;20033;-76
2021/06/24 05:07:00;;;;;;;7.47;2.25;;;;;;;10.29;81.29;101207.63;5000306;28;20046;-76
2021/06/24 05:09:28;;;;;;;3.90;2.08;;;;;;;10.43;80.66;101211.53;5006288;28;20483;-77
2021/06/24 05:11:54;;;;;;;3.63;2.17;;;;;;;10.57;80.17;101219.31;5015587;28;20372;-77
2021/06/24 05:14:20;;;;;;;4.70;2.40;;;;;;;10.72;80.04;101210.97;5019417;28;20072;-76
2021/06/24 05:16:45;;;;;;;5.72;2.40;;;;;;;10.85;80.02;101215.97;5010023;28;20116;-77
2021/06/24 05:19:11;;;;;;;3.75;1.90;;;;;;;10.99;79.45;101218.19;5014434;28;20041;-78
2021/06/24 05:21:38;;;;;;;3.92;2.20;;;;;;;11.14;79.27;101210.69;4962884;28;20026;-78
2021/06/24 05:24:05;;;;;;;5.15;1.98;;;;;;;11.31;80.08;101203.94;4998439;28;20117;-78
2021/06/24 05:26:30;;;;;;;3.70;2.30;;;;;;;11.47;80.12;101205.56;4983081;28;20483;-77
2021/06/24 05:28:56;;;;;;;5.85;2.20;;;;;;;11.62;79.79;101211.09;5021490;28;20099;-78
2021/06/24 05:31:22;;;;;;;7.88;2.90;;;;;;;11.80;79.74;101203.22;4979796;28;20508;-78
2021/06/24 05:33:48;;;;;;;8.60;3.08;;;;;;;11.96;79.94;101202.06;5019401;28;20466;-73
2021/06/24 05:36:13;;;;;;;7.68;2.45;;;;;;;12.11;78.40;101208.66;5020957;28;20029;-74
2021/06/24 05:38:39;;;;;;;5.07;2.20;;;;;;;12.25;77.76;101204.09;5019254;28;20494;-74
2021/06/24 05:41:04;;;;;;;5.47;2.00;;;;;;;12.40;77.38;101211.56;4986194;28;20072;-74
2021/06/24 05:43:30;;;;;;;7.93;2.30;;;;;;;12.55;76.74;101210.59;5020976;28;20037;-74
2021/06/24 05:45:55;;;;;;;6.75;2.20;;;;;;;12.73;76.77;101216.31;5018729;28;20025;-74
2021/06/24 05:48:21;;;;;;;7.72;2.67;;;;;;;12.87;76.46;101213.69;5014874;28;20026;-74
2021/06/24 05:50:46;;;;;;;5.45;2.88;;;;;;;13.04;75.96;101215.19;4988084;28;20528;-74
2021/06/24 05:53:12;;;;;;;7.10;2.72;;;;;;;13.16;75.68;101219.25;4987214;28;20588;-74
2021/06/24 05:55:50;;;;;;;4.88;2.50;;;;;;;13.31;75.45;101221.06;4988152;28;20046;-75
2021/06/24 05:58:20;;;;;;;6.82;2.72;;;;;;;13.48;74.74;101212.22;4986240;28;20084;-75
2021/06/24 06:00:46;;;;;;;6.18;2.20;;;;;;;13.66;74.38;101209.81;4984646;28;20049;-74
2021/06/24 06:03:12;;;;;;;6.18;2.17;;;;;;;13.79;74.29;101220.22;5016107;28;20034;-71
2021/06/24 06:05:37;;;;;;;6.65;2.30;;;;;;;13.97;73.97;101224.22;5011292;28;20045;-71
2021/06/24 06:08:04;;;;;;;4.47;2.20;;;;;;;14.14;74.12;101220.91;5007331;28;20026;-76
2021/06/24 06:10:34;;;;;;;4.72;1.85;;;;;;;14.31;73.46;101212.81;5006651;28;20033;-76
2021/06/24 06:12:59;;;;;;;7.07;2.05;;;;;;;14.47;72.84;101219.84;5002654;28;20030;-76
2021/06/24 06:15:25;;;;;;;5.70;2.10;;;;;;;14.64;72.62;101221.31;4991489;28;20127;-73
2021/06/24 06:17:50;;;;;;;6.63;2.35;;;;;;;14.78;72.11;101222.19;5003393;28;20026;-78
2021/06/24 06:20:16;;;;;;;7.90;2.13;;;;;;;14.92;72.09;101231.44;5007667;28;20049;-73
2021/06/24 06:22:42;;;;;;;8.40;2.20;;;;;;;15.07;72.17;101227.56;5022873;28;20382;-73
2021/06/24 06:25:08;;;;;;;7.90;2.20;;;;;;;15.27;71.80;101237.56;5011815;28;20391;-73
2021/06/24 06:27:33;;;;;;;5.78;2.10;;;;;;;15.45;71.30;101232.19;5016778;28;20121;-73
2021/06/24 06:29:59;;;;;;;6.82;2.00;;;;;;;15.59;71.24;101235.81;4971046;28;20032;-73
2021/06/24 06:32:24;;;;;;;5.63;2.60;;;;;;;15.80;70.77;101234.31;5020625;28;20092;-73
2021/06/24 06:34:50;;;;;;;11.30;4.78;;;;;;;16.01;70.48;101245.06;5022628;28;20026;-73
2021/06/24 06:37:16;;;;;;;10.65;4.22;;;;;;;16.16;70.47;101233.53;5003793;28;20033;-74
2021/06/24 06:39:42;;;;;;;10.05;3.92;;;;;;;16.32;70.21;101222.81;4984575;28;20026;-73
2021/06/24 06:42:07;;;;;;;6.82;2.95;;;;;;;16.46;70.08;101222.75;5025003;28;20454;-73
2021/06/24 06:44:33;;;;;;;6.78;2.78;;;;;;;16.59;69.72;101227.50;4991145;28;20427;-73
2021/06/24 06:46:58;;;;;;;8.82;2.45;;;;;;;16.74;69.18;101229.09;5002130;28;20030;-73
2021/06/24 06:49:24;;;;;;;6.55;2.67;;;;;;;16.90;69.27;101238.00;5004106;28;20025;-73
2021/06/24 06:51:50;;;;;;;7.80;2.47;;;;;;;17.00;69.47;101231.31;4984756;28;20541;-73
2021/06/24 06:54:15;;;;;;;6.65;2.17;;;;;;;17.14;68.97;101234.84;5028107;28;20030;-73
2021/06/24 06:56:45;;;;;;;7.22;2.47;;;;;;;17.37;68.38;101236.47;5006393;28;20068;-73
2021/06/24 06:59:11;;;;;;;6.20;2.15;;;;;;;17.55;67.86;101233.72;4969332;28;20026;-73
2021/06/24 07:01:37;;;;;;;7.15;1.67;;;;;;;17.70;67.82;101243.72;4988869;28;20110;-73
2021/06/24 07:04:02;;;;;;;5.40;1.55;;;;;;;17.83;67.62;101232.41;4987553;28;20037;-74
2021/06/24 07:06:28;;;;;;;4.80;1.67;;;;;;;17.99;65.93;101234.75;5018241;28;20041;-73
2021/06/24 07:08:56;;;;;;;9.73;2.22;;;;;;;18.18;64.22;101237.28;4981924;28;20040;-73
2021/06/24 07:11:21;;;;;;;6.70;1.50;;;;;;;18.26;64.51;101230.84;4996796;28;20037;-73
2021/06/24 07:13:47;;;;;;;6.40;1.63;;;;;;;18.43;63.98;101239.28;5026154;28;20025;-73
2021/06/24 07:16:12;;;;;;;10.10;1.60;;;;;;;18.60;64.38;101244.09;5021547;28;20087;-73
2021/06/24 07:18:38;;;;;;;5.03;1.63;;;;;;;18.56;62.79;101245.94;5018389;28;20038;-73
2021/06/24 07:21:04;;;;;;;6.95;1.70;;;;;;;18.77;62.42;101245.28;5020680;28;20028;-73
2021/06/24 07:23:29;;;;;;;5.03;1.58;;;;;;;18.81;64.10;101244.28;5014693;28;20030;-74
2021/06/24 07:25:55;;;;;;;5.57;1.75;;;;;;;18.84;64.05;101249.25;4998993;28;20054;-73
2021/06/24 07:28:20;;;;;;;4.93;1.65;;;;;;;18.96;63.61;101252.22;5004700;28;20059;-73
2021/06/24 07:30:49;;;;;;;4.22;1.48;;;;;;;19.04;64.17;101259.00;4986299;28;20026;-73
2021/06/24 07:33:15;;;;;;;4.50;1.85;;;;;;;19.02;63.32;101250.06;5004906;28;20034;-73
2021/06/24 07:35:41;;;;;;;5.30;1.80;;;;;;;19.21;62.72;101252.50;5009814;28;20029;-73
2021/06/24 07:38:06;;;;;;;5.40;1.75;;;;;;;19.31;63.81;101245.72;5016359;28;20045;-73
2021/06/24 07:40:32;;;;;;;6.70;1.83;;;;;;;19.39;63.06;101242.88;4999720;28;20038;-74
2021/06/24 07:42:59;;;;;;;2.97;1.33;;;;;;;19.49;63.39;101249.28;5005250;28;20034;-73
2021/06/24 07:45:26;;;;;;;4.40;1.50;;;;;;;19.55;62.97;101250.75;5029638;28;20037;-73
2021/06/24 07:47:52;;;;;;;7.30;2.08;;;;;;;19.65;63.27;101250.38;5016002;28;20057;-73
2021/06/24 07:50:17;;;;;;;4.43;1.30;;;;;;;19.72;62.69;101245.06;5004398;28;20088;-73
2021/06/24 07:52:43;;;;;;;6.82;1.60;;;;;;;19.75;62.80;101244.41;5007772;28;20483;-73
2021/06/24 07:55:10;;;;;;;7.05;1.80;;;;;;;19.91;62.52;101246.66;4970045;28;20048;-73
2021/06/24 07:57:35;;;;;;;6.90;1.38;;;;;;;19.99;62.38;101242.97;4988844;28;20395;-73
2021/06/24 08:00:05;;;;;;;6.50;1.83;;;;;;;20.08;62.10;101240.91;5008091;28;20034;-74
2021/06/24 08:02:30;;;;;;;6.60;1.50;;;;;;;20.18;61.86;101229.25;5000221;28;20068;-73
2021/06/24 08:04:56;;;;;;;4.25;1.42;;;;;;;20.34;61.38;101235.13;4988288;28;20022;-73
2021/06/24 08:07:21;;;;;;;7.05;1.48;;;;;;;20.43;61.61;101240.69;4994639;28;20390;-73
2021/06/24 08:09:47;;;;;;;5.85;1.38;;;;;;;20.50;61.40;101238.13;5003667;28;20041;-73
2021/06/24 08:12:12;;;;;;;3.75;1.67;;;;;;;20.56;60.93;101233.97;5001048;28;20034;-73
2021/06/24 08:14:38;;;;;;;4.40;1.40;;;;;;;20.73;60.72;101233.81;5002337;28;20033;-74
2021/06/24 08:17:04;;;;;;;8.93;1.40;;;;;;;20.75;60.74;101236.28;4983921;28;20061;-73
2021/06/24 08:19:29;;;;;;;4.03;1.52;;;;;;;20.91;59.96;101244.94;5011070;28;20030;-73
2021/06/24 08:21:58;;;;;;;5.10;1.85;;;;;;;21.04;59.95;101243.84;4994419;28;20022;-73
2021/06/24 08:24:25;;;;;;;5.63;1.70;;;;;;;21.17;58.77;101239.88;5004534;28;20546;-73
2021/06/24 08:26:51;;;;;;;7.15;2.10;;;;;;;21.29;56.84;101229.78;4983925;28;20033;-74
2021/06/24 08:29:17;;;;;;;6.03;2.30;;;;;;;21.48;57.74;101230.09;4991673;28;20062;-74
2021/06/24 08:31:43;;;;;;;6.88;2.03;;;;;;;21.52;58.69;101231.03;4989944;28;20091;-74
2021/06/24 08:34:08;;;;;;;5.88;2.03;;;;;;;21.55;59.09;101230.31;4960117;28;20530;-74
2021/06/24 08:36:34;;;;;;;9.32;2.40;;;;;;;21.66;58.13;101230.69;5000228;28;20042;-73
2021/06/24 08:38:59;;;;;;;5.60;2.25;;;;;;;21.75;57.96;101231.38;4974068;28;20029;-73
2021/06/24 08:41:25;;;;;;;7.43;2.38;;;;;;;21.82;58.10;101233.66;4998459;28;20108;-71
2021/06/24 08:43:52;;;;;;;9.65;2.30;;;;;;;21.89;57.63;101231.03;5002420;28;20026;-71
2021/06/24 08:46:20;;;;;;;5.55;2.30;;;;;;;21.99;57.43;101233.41;5022560;28;20029;-71
2021/06/24 08:48:45;;;;;;;6.68;2.42;;;;;;;22.08;57.53;101234.09;4997426;28;20041;-71
2021/06/24 08:51:11;;;;;;;6.10;2.22;;;;;;;22.19;57.00;101234.47;5018151;28;20037;-71
2021/06/24 08:53:36;;;;;;;6.78;2.75;;;;;;;22.32;57.11;101235.28;4999968;28;20029;-71
2021/06/24 08:56:02;;;;;;;6.28;2.80;;;;;;;;;;4994361;28;20438;-71
2021/06/24 08:58:27;;;;;;;6.93;3.88;;;;;;;22.52;54.95;101231.47;4987583;28;20081;-71
2021/06/24 09:00:54;;;;;;;6.13;2.92;;;;;;;22.56;55.47;101230.75;4994615;28;20040;-71
2021/06/24 09:03:24;;;;;;;7.32;2.97;;;;;;;22.66;56.18;101230.25;5019276;28;20038;-71
2021/06/24 09:05:55;;;;;;;6.47;3.50;;;;;;;22.70;55.77;101223.47;4960192;28;20161;-71
2021/06/24 09:08:35;;;;;;;6.32;3.30;;;;;;;22.82;55.45;101222.63;4988432;28;20025;-71
2021/06/24 09:11:16;;;;;;;7.00;3.85;;;;;;;22.90;55.58;101220.81;4982842;28;20061;-71
2021/06/24 09:13:43;;;;;;;5.15;3.35;;;;;;;23.00;55.49;101226.00;5005257;28;20507;-71
2021/06/24 09:16:19;;;;;;;9.10;3.83;;;;;;;23.14;55.45;101226.38;5000622;28;20029;-71
2021/06/24 09:18:44;;;;;;;5.80;3.45;;;;;;;23.34;55.40;101235.00;5022473;28;20034;-71
2021/06/24 09:21:21;;;;;;;6.70;4.25;;;;;;;23.48;55.04;101237.41;5000141;28;20037;-71
2021/06/24 09:23:49;;;;;;;10.15;4.32;;;;;;;23.55;54.52;101227.09;4986394;28;20053;-71
2021/06/24 09:26:15;;;;;;;6.28;3.70;;;;;;;23.68;54.61;101226.97;5007878;28;20436;-71
2021/06/24 09:28:45;;;;;;;5.82;3.92;;;;;;;23.81;54.43;101215.19;5011823;28;20050;-71
2021/06/24 09:31:31;;;;;;;7.40;4.93;;;;;;;23.92;53.64;101228.84;5004679;28;20487;-70
2021/06/24 09:34:05;;;;;;;11.27;5.53;;;;;;;23.99;52.92;101232.69;4987464;28;20022;-71
2021/06/24 09:36:32;;;;;;;9.10;5.50;;;;;;;24.13;52.85;101226.53;5013166;28;20056;-70
2021/06/24 09:38:57;;;;;;;8.80;5.05;;;;;;;24.27;53.07;101231.72;5007891;28;20037;-70
2021/06/24 09:41:23;;;;;;;10.13;4.90;;;;;;;24.28;52.81;101233.34;5001058;28;20029;-70
2021/06/24 09:43:48;;;;;;;7.93;4.82;;;;;;;24.28;53.04;101234.16;5009297;28;20037;-70
2021/06/24 09:46:15;;;;;;;10.50;6.10;;;;;;;24.25;51.57;101234.91;5007572;28;20506;-71
2021/06/24 09:48:42;;;;;;;12.45;6.47;;;;;;;24.16;51.33;101233.47;4999145;28;20037;-71
2021/06/24 09:51:09;;;;;;;8.57;6.03;;;;;;;24.18;52.40;101229.06;5013928;28;20022;-71
2021/06/24 09:53:51;;;;;;;11.40;6.78;;;;;;;24.09;52.40;101226.41;5004534;28;20058;-71
2021/06/24 09:56:25;;;;;;;9.83;6.80;;;;;;;24.33;52.82;101235.91;5006398;28;20103;-71
2021/06/24 09:58:51;;;;;;;10.32;5.78;;;;;;;24.47;52.70;101232.59;5015109;28;20034;-71
2021/06/24 10:01:37;;;;;;;9.52;5.63;;;;;;;24.62;52.51;101228.03;4988446;28;20022;-71
2021/06/24 10:04:04;;;;;;;9.88;6.88;;;;;;;24.64;50.80;101239.84;4989025;28;20131;-71
2021/06/24 10:06:30;;;;;;;9.13;6.85;;;;;;;24.83;49.73;101231.34;5000951;28;20036;-70
2021/06/24 10:08:56;;;;;;;9.73;7.55;;;;;;;24.88;47.77;101233.06;5020810;28;20034;-70
2021/06/24 10:11:22;;;;;;;11.45;7.18;;;;;;;24.80;48.07;101234.94;5012632;28;20041;-70
2021/06/24 10:13:48;;;;;;;16.27;7.90;;;;;;;24.70;48.04;101233.50;5019542;28;20034;-70
2021/06/24 10:16:15;;;;;;;10.45;7.50;;;;;;;24.85;49.29;101230.94;5023680;28;20039;-71
2021/06/24 10:18:40;;;;;;;11.32;7.80;;;;;;;24.94;47.02;101238.06;4983954;28;20057;-71
2021/06/24 10:21:06;;;;;;;14.30;8.45;;;;;;;25.02;47.64;101230.50;5006814;28;20026;-71
2021/06/24 10:23:31;;;;;;;12.02;7.32;;;;;;;25.20;47.56;101228.03;5020432;28;20467;-70
2021/06/24 10:25:57;;;;;;;8.82;7.03;;;;;;;25.30;47.99;101218.06;4984876;28;20038;-71
2021/06/24 10:28:22;;;;;;;9.02;7.32;;;;;;;25.32;48.21;101225.00;5007723;28;20034;-71
2021/06/24 10:30:48;;;;;;;11.40;7.18;;;;;;;25.34;47.78;101236.00;4976877;28;20033;-70
2021/06/24 10:33:15;;;;;;;8.02;6.80;;;;;;;25.36;46.51;101242.16;5014569;28;20042;-71
2021/06/24 10:35:49;;;;;;;8.73;7.28;;;;;;;25.32;46.31;101229.88;5013356;28;20060;-70
2021/06/24 10:38:16;;;;;;;10.45;7.43;;;;;;;25.25;46.94;101235.44;5004372;28;20115;-70
2021/06/24 10:40:42;;;;;;;14.00;8.48;;;;;;;24.92;47.11;101239.63;5000736;28;20034;-70
2021/06/24 10:43:12;;;;;;;8.88;7.22;;;;;;;24.98;47.56;101227.56;5011938;28;20037;-71
2021/06/24 10:45:38;;;;;;;12.25;7.05;;;;;;;25.23;48.05;101234.97;5013702;28;20087;-71
2021/06/24 10:48:29;;;;;;;9.95;7.32;;;;;;;25.36;47.88;101236.47;5021723;28;20026;-70
2021/06/24 10:50:58;;;;;;;8.95;6.32;;;;;;;25.46;48.40;101230.13;4990547;28;20385;-70
2021/06/24 10:53:24;;;;;;;8.32;6.47;;;;;;;25.39;49.47;101242.19;5004370;28;20525;-71
2021/06/24 10:55:50;;;;;;;13.13;7.03;;;;;;;25.40;46.72;101237.34;5015421;28;20050;-71
2021/06/24 10:58:19;;;;;;;12.63;8.40;;;;;;;24.93;46.90;101244.09;5010968;28;20034;-71
2021/06/24 11:00:45;;;;;;;9.63;8.48;;;;;;;24.73;45.76;101244.09;5010020;28;20031;-71
2021/06/24 11:03:12;;;;;;;11.25;8.25;;;;;;;24.61;46.37;101244.25;4991538;28;20478;-70
2021/06/24 11:05:38;;;;;;;11.10;8.40;;;;;;;24.68;46.92;101238.75;4975150;28;20025;-71
2021/06/24 11:08:20;;;;;;;10.68;8.07;;;;;;;24.45;47.38;101247.13;5018845;28;20367;-70
2021/06/24 11:10:59;;;;;;;11.60;8.48;;;;;;;24.29;47.40;101250.00;5011356;28;20570;-70
2021/06/24 11:13:38;;;;;;;13.73;9.70;;;;;;;24.26;47.82;101253.56;4986936;28;20029;-70
2021/06/24 11:16:24;;;;;;;10.07;8.02;;;;;;;24.23;48.12;101245.78;5017859;28;20044;-70
2021/06/24 11:18:59;;;;;;;12.45;8.57;;;;;;;24.18;49.02;101246.09;5008795;28;20042;-71
2021/06/24 11:21:33;;;;;;;12.73;8.50;;;;;;;24.24;49.74;101238.94;5023603;28;20030;-71
2021/06/24 11:24:05;;;;;;;10.52;8.02;;;;;;;24.36;50.42;101238.00;5010880;28;20044;-71